sensor_id;sensor_type;location;lat;lon;timestamp;P1;durP1;ratioP1;P2;durP2;ratioP2
53881;SDS011;39794;55.782;37.452;2023-04-03T00:01:56;14.43;;;10.38;;
53881;SDS011;39794;55.782;37.452;2023-04-03T00:04:24;15.00;;;9.80;;
53881;SDS011;39794;55.782;37.452;2023-04-03T00:06:54;10.80;;;7.90;;
53881;SDS011;39794;55.782;37.452;2023-04-03T00:09:23;12.65;;;8.73;;
53881;SDS011;39794;55.782;37.452;2023-04-03T00:11:51;13.80;;;8.50;;
53881;SDS011;39794;55.782;37.452;2023-04-03T00:14:20;16.85;;;10.98;;
53881;SDS011;39794;55.782;37.452;2023-04-03T00:16:51;16.58;;;11.02;;
53881;SDS011;39794;55.782;37.452;2023-04-03T00:19:19;15.55;;;9.88;;
53881;SDS011;39794;55.782;37.452;2023-04-03T00:21:48;9.38;;;7.00;;
53881;SDS011;39794;55.782;37.452;2023-04-03T00:24:18;11.07;;;7.85;;
53881;SDS011;39794;55.782;37.452;2023-04-03T00:26:49;14.35;;;8.15;;
53881;SDS011;39794;55.782;37.452;2023-04-03T00:29:18;11.73;;;8.30;;
53881;SDS011;39794;55.782;37.452;2023-04-03T00:31:48;13.40;;;7.70;;
53881;SDS011;39794;55.782;37.452;2023-04-03T00:34:16;12.65;;;9.18;;
53881;SDS011;39794;55.782;37.452;2023-04-03T00:36:46;14.68;;;9.05;;
53881;SDS011;39794;55.782;37.452;2023-04-03T00:39:15;13.32;;;8.00;;
53881;SDS011;39794;55.782;37.452;2023-04-03T00:41:46;11.05;;;7.72;;
53881;SDS011;39794;55.782;37.452;2023-04-03T00:44:19;16.75;;;8.07;;
53881;SDS011;39794;55.782;37.452;2023-04-03T00:46:51;12.93;;;7.50;;
53881;SDS011;39794;55.782;37.452;2023-04-03T00:49:20;15.38;;;8.77;;
53881;SDS011;39794;55.782;37.452;2023-04-03T00:51:49;13.50;;;8.60;;
53881;SDS011;39794;55.782;37.452;2023-04-03T00:54:18;16.13;;;8.82;;
53881;SDS011;39794;55.782;37.452;2023-04-03T00:56:48;13.82;;;9.50;;
53881;SDS011;39794;55.782;37.452;2023-04-03T00:59:19;15.85;;;9.18;;
53881;SDS011;39794;55.782;37.452;2023-04-03T01:01:52;22.02;;;11.00;;
53881;SDS011;39794;55.782;37.452;2023-04-03T01:04:26;25.15;;;13.70;;
53881;SDS011;39794;55.782;37.452;2023-04-03T01:06:56;26.15;;;15.73;;
53881;SDS011;39794;55.782;37.452;2023-04-03T01:09:27;25.42;;;14.20;;
53881;SDS011;39794;55.782;37.452;2023-04-03T01:14:52;24.48;;;13.55;;
53881;SDS011;39794;55.782;37.452;2023-04-03T01:17:27;18.58;;;11.88;;
53881;SDS011;39794;55.782;37.452;2023-04-03T01:23:11;23.42;;;13.68;;
53881;SDS011;39794;55.782;37.452;2023-04-03T01:25:45;22.05;;;13.48;;
53881;SDS011;39794;55.782;37.452;2023-04-03T01:28:15;20.23;;;14.02;;
53881;SDS011;39794;55.782;37.452;2023-04-03T01:30:47;23.05;;;14.20;;
53881;SDS011;39794;55.782;37.452;2023-04-03T01:33:20;20.30;;;12.70;;
53881;SDS011;39794;55.782;37.452;2023-04-03T01:35:49;25.33;;;13.93;;
53881;SDS011;39794;55.782;37.452;2023-04-03T01:38:17;20.90;;;13.63;;
53881;SDS011;39794;55.782;37.452;2023-04-03T01:40:47;24.38;;;13.93;;
53881;SDS011;39794;55.782;37.452;2023-04-03T01:43:15;19.80;;;13.57;;
53881;SDS011;39794;55.782;37.452;2023-04-03T01:45:45;25.85;;;12.88;;
53881;SDS011;39794;55.782;37.452;2023-04-03T01:48:16;20.92;;;13.10;;
53881;SDS011;39794;55.782;37.452;2023-04-03T01:50:46;19.80;;;12.18;;
53881;SDS011;39794;55.782;37.452;2023-04-03T01:53:15;17.52;;;11.57;;
53881;SDS011;39794;55.782;37.452;2023-04-03T01:55:43;17.13;;;11.35;;
53881;SDS011;39794;55.782;37.452;2023-04-03T01:58:12;17.58;;;10.80;;
53881;SDS011;39794;55.782;37.452;2023-04-03T02:00:43;17.40;;;10.45;;
53881;SDS011;39794;55.782;37.452;2023-04-03T02:03:12;20.10;;;11.48;;
53881;SDS011;39794;55.782;37.452;2023-04-03T02:05:41;18.45;;;11.52;;
53881;SDS011;39794;55.782;37.452;2023-04-03T02:08:11;15.18;;;10.95;;
53881;SDS011;39794;55.782;37.452;2023-04-03T02:10:40;17.05;;;10.80;;
53881;SDS011;39794;55.782;37.452;2023-04-03T02:13:09;15.75;;;10.75;;
53881;SDS011;39794;55.782;37.452;2023-04-03T02:15:39;19.23;;;10.55;;
53881;SDS011;39794;55.782;37.452;2023-04-03T02:18:08;17.60;;;10.60;;
53881;SDS011;39794;55.782;37.452;2023-04-03T02:20:37;16.33;;;11.15;;
53881;SDS011;39794;55.782;37.452;2023-04-03T02:23:06;16.38;;;10.30;;
53881;SDS011;39794;55.782;37.452;2023-04-03T02:25:36;19.42;;;10.02;;
53881;SDS011;39794;55.782;37.452;2023-04-03T02:28:05;16.33;;;10.45;;
53881;SDS011;39794;55.782;37.452;2023-04-03T02:30:33;16.15;;;10.93;;
53881;SDS011;39794;55.782;37.452;2023-04-03T02:33:03;16.48;;;10.30;;
53881;SDS011;39794;55.782;37.452;2023-04-03T02:35:32;15.75;;;10.48;;
53881;SDS011;39794;55.782;37.452;2023-04-03T02:38:01;14.68;;;10.30;;
53881;SDS011;39794;55.782;37.452;2023-04-03T02:40:30;17.55;;;11.13;;
53881;SDS011;39794;55.782;37.452;2023-04-03T02:43:00;21.90;;;12.18;;
53881;SDS011;39794;55.782;37.452;2023-04-03T02:45:29;23.60;;;11.85;;
53881;SDS011;39794;55.782;37.452;2023-04-03T02:47:58;19.20;;;12.57;;
53881;SDS011;39794;55.782;37.452;2023-04-03T02:50:26;20.67;;;12.02;;
53881;SDS011;39794;55.782;37.452;2023-04-03T02:52:55;16.85;;;11.68;;
53881;SDS011;39794;55.782;37.452;2023-04-03T02:55:23;17.88;;;11.32;;
53881;SDS011;39794;55.782;37.452;2023-04-03T02:57:56;17.98;;;12.45;;
53881;SDS011;39794;55.782;37.452;2023-04-03T03:00:26;18.33;;;12.25;;
53881;SDS011;39794;55.782;37.452;2023-04-03T03:02:55;20.23;;;12.65;;
53881;SDS011;39794;55.782;37.452;2023-04-03T03:05:24;13.90;;;9.75;;
53881;SDS011;39794;55.782;37.452;2023-04-03T03:07:53;17.15;;;12.13;;
53881;SDS011;39794;55.782;37.452;2023-04-03T03:10:22;16.30;;;9.90;;
53881;SDS011;39794;55.782;37.452;2023-04-03T03:12:51;13.77;;;8.93;;
53881;SDS011;39794;55.782;37.452;2023-04-03T03:15:19;19.02;;;10.85;;
53881;SDS011;39794;55.782;37.452;2023-04-03T03:17:50;21.77;;;12.20;;
53881;SDS011;39794;55.782;37.452;2023-04-03T03:20:19;20.33;;;11.77;;
53881;SDS011;39794;55.782;37.452;2023-04-03T03:22:48;17.70;;;11.65;;
53881;SDS011;39794;55.782;37.452;2023-04-03T03:25:17;19.52;;;11.75;;
53881;SDS011;39794;55.782;37.452;2023-04-03T03:27:46;18.48;;;11.00;;
53881;SDS011;39794;55.782;37.452;2023-04-03T03:30:15;15.98;;;8.73;;
53881;SDS011;39794;55.782;37.452;2023-04-03T03:32:44;17.95;;;9.68;;
53881;SDS011;39794;55.782;37.452;2023-04-03T03:35:16;17.00;;;9.90;;
53881;SDS011;39794;55.782;37.452;2023-04-03T03:37:46;16.85;;;9.25;;
53881;SDS011;39794;55.782;37.452;2023-04-03T03:40:15;17.23;;;8.60;;
53881;SDS011;39794;55.782;37.452;2023-04-03T03:42:44;20.10;;;8.82;;
53881;SDS011;39794;55.782;37.452;2023-04-03T03:45:13;16.63;;;7.97;;
53881;SDS011;39794;55.782;37.452;2023-04-03T03:47:42;14.57;;;8.40;;
53881;SDS011;39794;55.782;37.452;2023-04-03T03:50:11;16.23;;;8.40;;
53881;SDS011;39794;55.782;37.452;2023-04-03T03:52:41;10.23;;;7.53;;
53881;SDS011;39794;55.782;37.452;2023-04-03T03:55:11;14.55;;;8.85;;
53881;SDS011;39794;55.782;37.452;2023-04-03T03:57:39;17.35;;;8.27;;
53881;SDS011;39794;55.782;37.452;2023-04-03T04:00:09;15.25;;;8.40;;
53881;SDS011;39794;55.782;37.452;2023-04-03T04:02:41;14.73;;;8.88;;
53881;SDS011;39794;55.782;37.452;2023-04-03T04:05:14;14.18;;;8.80;;
53881;SDS011;39794;55.782;37.452;2023-04-03T04:07:45;14.10;;;8.80;;
53881;SDS011;39794;55.782;37.452;2023-04-03T04:10:14;17.30;;;9.07;;
53881;SDS011;39794;55.782;37.452;2023-04-03T04:12:44;15.05;;;9.02;;
53881;SDS011;39794;55.782;37.452;2023-04-03T04:15:13;14.32;;;9.02;;
53881;SDS011;39794;55.782;37.452;2023-04-03T04:17:42;16.10;;;9.95;;
53881;SDS011;39794;55.782;37.452;2023-04-03T04:20:11;14.32;;;9.52;;
53881;SDS011;39794;55.782;37.452;2023-04-03T04:22:40;16.77;;;9.27;;
53881;SDS011;39794;55.782;37.452;2023-04-03T04:25:10;16.42;;;9.82;;
53881;SDS011;39794;55.782;37.452;2023-04-03T04:27:39;18.08;;;9.48;;
53881;SDS011;39794;55.782;37.452;2023-04-03T04:30:08;16.50;;;9.98;;
53881;SDS011;39794;55.782;37.452;2023-04-03T04:32:38;18.80;;;10.20;;
53881;SDS011;39794;55.782;37.452;2023-04-03T04:35:07;15.23;;;9.90;;
53881;SDS011;39794;55.782;37.452;2023-04-03T04:37:40;16.08;;;10.23;;
53881;SDS011;39794;55.782;37.452;2023-04-03T04:40:09;20.40;;;10.70;;
53881;SDS011;39794;55.782;37.452;2023-04-03T04:42:39;18.67;;;9.77;;
53881;SDS011;39794;55.782;37.452;2023-04-03T04:45:09;16.50;;;9.95;;
53881;SDS011;39794;55.782;37.452;2023-04-03T04:47:41;15.45;;;9.05;;
53881;SDS011;39794;55.782;37.452;2023-04-03T04:50:10;15.45;;;9.88;;
53881;SDS011;39794;55.782;37.452;2023-04-03T04:52:39;16.25;;;9.90;;
53881;SDS011;39794;55.782;37.452;2023-04-03T04:55:08;16.10;;;8.93;;
53881;SDS011;39794;55.782;37.452;2023-04-03T04:57:39;19.50;;;9.48;;
53881;SDS011;39794;55.782;37.452;2023-04-03T05:00:08;15.20;;;9.88;;
53881;SDS011;39794;55.782;37.452;2023-04-03T05:02:40;15.27;;;9.50;;
53881;SDS011;39794;55.782;37.452;2023-04-03T05:05:09;18.17;;;9.07;;
53881;SDS011;39794;55.782;37.452;2023-04-03T05:07:38;14.98;;;9.25;;
53881;SDS011;39794;55.782;37.452;2023-04-03T05:10:08;18.02;;;9.90;;
53881;SDS011;39794;55.782;37.452;2023-04-03T05:12:40;15.77;;;9.52;;
53881;SDS011;39794;55.782;37.452;2023-04-03T05:15:09;15.60;;;8.65;;
53881;SDS011;39794;55.782;37.452;2023-04-03T05:17:37;20.33;;;9.85;;
53881;SDS011;39794;55.782;37.452;2023-04-03T05:20:10;18.05;;;10.05;;
53881;SDS011;39794;55.782;37.452;2023-04-03T05:22:41;16.08;;;10.18;;
53881;SDS011;39794;55.782;37.452;2023-04-03T05:25:13;16.02;;;9.68;;
53881;SDS011;39794;55.782;37.452;2023-04-03T05:27:44;17.40;;;9.52;;
53881;SDS011;39794;55.782;37.452;2023-04-03T05:30:16;19.55;;;10.15;;
53881;SDS011;39794;55.782;37.452;2023-04-03T05:32:48;19.00;;;9.68;;
53881;SDS011;39794;55.782;37.452;2023-04-03T05:35:24;22.30;;;11.50;;
53881;SDS011;39794;55.782;37.452;2023-04-03T05:37:56;16.67;;;9.75;;
53881;SDS011;39794;55.782;37.452;2023-04-03T05:40:28;14.52;;;9.55;;
53881;SDS011;39794;55.782;37.452;2023-04-03T05:42:59;20.42;;;10.90;;
53881;SDS011;39794;55.782;37.452;2023-04-03T05:45:34;18.17;;;10.57;;
53881;SDS011;39794;55.782;37.452;2023-04-03T05:48:03;26.83;;;10.93;;
53881;SDS011;39794;55.782;37.452;2023-04-03T05:50:32;22.30;;;9.32;;
53881;SDS011;39794;55.782;37.452;2023-04-03T05:53:02;18.80;;;10.68;;
53881;SDS011;39794;55.782;37.452;2023-04-03T05:55:32;22.98;;;10.65;;
53881;SDS011;39794;55.782;37.452;2023-04-03T05:58:01;19.52;;;10.15;;
53881;SDS011;39794;55.782;37.452;2023-04-03T06:00:30;14.60;;;10.32;;
53881;SDS011;39794;55.782;37.452;2023-04-03T06:03:01;20.15;;;10.88;;
53881;SDS011;39794;55.782;37.452;2023-04-03T06:05:30;16.27;;;10.15;;
53881;SDS011;39794;55.782;37.452;2023-04-03T06:07:59;20.27;;;10.50;;
53881;SDS011;39794;55.782;37.452;2023-04-03T06:10:27;21.73;;;10.43;;
53881;SDS011;39794;55.782;37.452;2023-04-03T06:12:56;30.42;;;11.13;;
53881;SDS011;39794;55.782;37.452;2023-04-03T06:15:26;22.98;;;10.90;;
53881;SDS011;39794;55.782;37.452;2023-04-03T06:17:57;33.53;;;10.73;;
53881;SDS011;39794;55.782;37.452;2023-04-03T06:20:27;20.77;;;10.95;;
53881;SDS011;39794;55.782;37.452;2023-04-03T06:22:56;26.13;;;11.10;;
53881;SDS011;39794;55.782;37.452;2023-04-03T06:25:26;24.40;;;11.23;;
53881;SDS011;39794;55.782;37.452;2023-04-03T06:27:55;22.98;;;11.10;;
53881;SDS011;39794;55.782;37.452;2023-04-03T06:30:24;22.42;;;10.57;;
53881;SDS011;39794;55.782;37.452;2023-04-03T06:32:54;18.05;;;10.55;;
53881;SDS011;39794;55.782;37.452;2023-04-03T06:35:23;22.02;;;10.43;;
53881;SDS011;39794;55.782;37.452;2023-04-03T06:37:52;20.00;;;11.15;;
53881;SDS011;39794;55.782;37.452;2023-04-03T06:40:22;30.25;;;10.77;;
53881;SDS011;39794;55.782;37.452;2023-04-03T06:42:52;21.45;;;11.23;;
53881;SDS011;39794;55.782;37.452;2023-04-03T06:45:21;22.35;;;10.50;;
53881;SDS011;39794;55.782;37.452;2023-04-03T06:47:51;26.35;;;10.77;;
53881;SDS011;39794;55.782;37.452;2023-04-03T06:50:21;22.35;;;10.88;;
53881;SDS011;39794;55.782;37.452;2023-04-03T06:52:49;19.30;;;10.95;;
53881;SDS011;39794;55.782;37.452;2023-04-03T06:55:18;27.98;;;10.98;;
53881;SDS011;39794;55.782;37.452;2023-04-03T06:57:47;23.15;;;10.85;;
53881;SDS011;39794;55.782;37.452;2023-04-03T07:00:16;19.15;;;10.85;;
53881;SDS011;39794;55.782;37.452;2023-04-03T07:02:45;26.00;;;10.38;;
53881;SDS011;39794;55.782;37.452;2023-04-03T07:05:13;25.17;;;10.40;;
53881;SDS011;39794;55.782;37.452;2023-04-03T07:07:44;25.52;;;11.40;;
53881;SDS011;39794;55.782;37.452;2023-04-03T07:10:12;20.77;;;10.93;;
53881;SDS011;39794;55.782;37.452;2023-04-03T07:12:41;23.33;;;11.02;;
53881;SDS011;39794;55.782;37.452;2023-04-03T07:15:10;19.40;;;11.05;;
53881;SDS011;39794;55.782;37.452;2023-04-03T07:17:41;24.05;;;10.15;;
53881;SDS011;39794;55.782;37.452;2023-04-03T07:20:11;21.02;;;10.65;;
53881;SDS011;39794;55.782;37.452;2023-04-03T07:22:40;23.35;;;11.68;;
53881;SDS011;39794;55.782;37.452;2023-04-03T07:25:10;25.40;;;11.57;;
53881;SDS011;39794;55.782;37.452;2023-04-03T07:27:39;18.95;;;10.75;;
53881;SDS011;39794;55.782;37.452;2023-04-03T07:30:08;20.95;;;11.00;;
53881;SDS011;39794;55.782;37.452;2023-04-03T07:32:37;24.77;;;11.55;;
53881;SDS011;39794;55.782;37.452;2023-04-03T07:35:05;25.38;;;11.85;;
53881;SDS011;39794;55.782;37.452;2023-04-03T07:37:34;29.73;;;10.75;;
53881;SDS011;39794;55.782;37.452;2023-04-03T07:40:03;24.98;;;10.93;;
53881;SDS011;39794;55.782;37.452;2023-04-03T07:42:36;22.63;;;11.27;;
53881;SDS011;39794;55.782;37.452;2023-04-03T07:45:09;20.55;;;10.93;;
53881;SDS011;39794;55.782;37.452;2023-04-03T07:47:38;27.50;;;10.73;;
53881;SDS011;39794;55.782;37.452;2023-04-03T07:50:07;21.83;;;11.65;;
53881;SDS011;39794;55.782;37.452;2023-04-03T07:52:37;32.20;;;11.98;;
53881;SDS011;39794;55.782;37.452;2023-04-03T07:55:06;27.60;;;11.43;;
53881;SDS011;39794;55.782;37.452;2023-04-03T07:57:37;27.80;;;11.45;;
53881;SDS011;39794;55.782;37.452;2023-04-03T08:00:06;28.55;;;11.18;;
53881;SDS011;39794;55.782;37.452;2023-04-03T08:02:38;23.80;;;10.88;;
53881;SDS011;39794;55.782;37.452;2023-04-03T08:05:07;29.58;;;11.13;;
53881;SDS011;39794;55.782;37.452;2023-04-03T08:07:38;27.30;;;9.88;;
53881;SDS011;39794;55.782;37.452;2023-04-03T08:10:07;17.13;;;9.60;;
53881;SDS011;39794;55.782;37.452;2023-04-03T08:12:37;18.45;;;9.75;;
53881;SDS011;39794;55.782;37.452;2023-04-03T08:15:06;25.73;;;9.90;;
53881;SDS011;39794;55.782;37.452;2023-04-03T08:17:36;20.55;;;10.00;;
53881;SDS011;39794;55.782;37.452;2023-04-03T08:20:05;20.58;;;10.75;;
53881;SDS011;39794;55.782;37.452;2023-04-03T08:22:34;17.52;;;9.15;;
53881;SDS011;39794;55.782;37.452;2023-04-03T08:25:03;24.15;;;10.50;;
53881;SDS011;39794;55.782;37.452;2023-04-03T08:27:33;21.17;;;9.55;;
53881;SDS011;39794;55.782;37.452;2023-04-03T08:30:03;21.38;;;9.77;;
53881;SDS011;39794;55.782;37.452;2023-04-03T08:32:33;20.20;;;9.45;;
53881;SDS011;39794;55.782;37.452;2023-04-03T08:35:03;21.63;;;9.77;;
53881;SDS011;39794;55.782;37.452;2023-04-03T08:37:34;26.25;;;9.82;;
53881;SDS011;39794;55.782;37.452;2023-04-03T08:40:04;25.70;;;10.35;;
53881;SDS011;39794;55.782;37.452;2023-04-03T08:42:37;27.88;;;11.15;;
53881;SDS011;39794;55.782;37.452;2023-04-03T08:45:14;27.42;;;11.00;;
53881;SDS011;39794;55.782;37.452;2023-04-03T08:47:45;29.88;;;10.57;;
53881;SDS011;39794;55.782;37.452;2023-04-03T08:50:17;25.30;;;9.98;;
53881;SDS011;39794;55.782;37.452;2023-04-03T08:52:48;26.92;;;9.00;;
53881;SDS011;39794;55.782;37.452;2023-04-03T08:55:21;26.05;;;9.95;;
53881;SDS011;39794;55.782;37.452;2023-04-03T08:57:53;24.40;;;10.05;;
53881;SDS011;39794;55.782;37.452;2023-04-03T09:00:29;28.38;;;9.75;;
53881;SDS011;39794;55.782;37.452;2023-04-03T09:03:00;28.90;;;9.57;;
53881;SDS011;39794;55.782;37.452;2023-04-03T09:05:32;22.00;;;9.88;;
53881;SDS011;39794;55.782;37.452;2023-04-03T09:08:12;20.38;;;10.63;;
53881;SDS011;39794;55.782;37.452;2023-04-03T09:10:45;21.10;;;10.48;;
53881;SDS011;39794;55.782;37.452;2023-04-03T09:13:18;31.65;;;11.68;;
53881;SDS011;39794;55.782;37.452;2023-04-03T09:15:54;29.08;;;12.45;;
53881;SDS011;39794;55.782;37.452;2023-04-03T09:18:24;32.50;;;11.70;;
53881;SDS011;39794;55.782;37.452;2023-04-03T09:21:00;23.45;;;11.80;;
53881;SDS011;39794;55.782;37.452;2023-04-03T09:23:34;34.00;;;12.13;;
53881;SDS011;39794;55.782;37.452;2023-04-03T09:26:09;19.80;;;11.75;;
53881;SDS011;39794;55.782;37.452;2023-04-03T09:28:43;28.42;;;11.73;;
53881;SDS011;39794;55.782;37.452;2023-04-03T09:31:20;24.93;;;11.73;;
53881;SDS011;39794;55.782;37.452;2023-04-03T09:36:37;25.33;;;11.63;;
53881;SDS011;39794;55.782;37.452;2023-04-03T09:39:08;27.02;;;11.20;;
53881;SDS011;39794;55.782;37.452;2023-04-03T09:41:41;27.27;;;12.77;;
53881;SDS011;39794;55.782;37.452;2023-04-03T09:44:20;28.73;;;11.82;;
53881;SDS011;39794;55.782;37.452;2023-04-03T09:46:51;32.88;;;11.65;;
53881;SDS011;39794;55.782;37.452;2023-04-03T09:49:19;26.27;;;11.27;;
53881;SDS011;39794;55.782;37.452;2023-04-03T09:51:48;27.85;;;11.75;;
53881;SDS011;39794;55.782;37.452;2023-04-03T09:54:31;27.75;;;12.60;;
53881;SDS011;39794;55.782;37.452;2023-04-03T09:57:05;26.45;;;12.32;;
53881;SDS011;39794;55.782;37.452;2023-04-03T09:59:40;21.77;;;11.20;;
53881;SDS011;39794;55.782;37.452;2023-04-03T10:02:27;26.58;;;11.80;;
53881;SDS011;39794;55.782;37.452;2023-04-03T10:05:01;24.50;;;11.90;;
53881;SDS011;39794;55.782;37.452;2023-04-03T10:07:33;20.55;;;11.68;;
53881;SDS011;39794;55.782;37.452;2023-04-03T10:10:16;28.58;;;11.88;;
53881;SDS011;39794;55.782;37.452;2023-04-03T10:12:47;33.60;;;13.05;;
53881;SDS011;39794;55.782;37.452;2023-04-03T10:15:17;33.42;;;13.50;;
53881;SDS011;39794;55.782;37.452;2023-04-03T10:17:56;27.23;;;12.05;;
53881;SDS011;39794;55.782;37.452;2023-04-03T10:20:37;22.30;;;11.07;;
53881;SDS011;39794;55.782;37.452;2023-04-03T10:23:17;23.58;;;11.43;;
53881;SDS011;39794;55.782;37.452;2023-04-03T10:25:52;29.88;;;12.20;;
53881;SDS011;39794;55.782;37.452;2023-04-03T10:28:29;19.98;;;11.23;;
53881;SDS011;39794;55.782;37.452;2023-04-03T10:31:03;21.27;;;11.32;;
53881;SDS011;39794;55.782;37.452;2023-04-03T10:33:47;19.95;;;10.27;;
53881;SDS011;39794;55.782;37.452;2023-04-03T10:36:25;17.63;;;9.85;;
53881;SDS011;39794;55.782;37.452;2023-04-03T10:39:04;23.33;;;10.32;;
53881;SDS011;39794;55.782;37.452;2023-04-03T10:41:43;19.55;;;9.73;;
53881;SDS011;39794;55.782;37.452;2023-04-03T10:44:24;20.20;;;9.75;;
53881;SDS011;39794;55.782;37.452;2023-04-03T10:47:01;27.58;;;10.43;;
53881;SDS011;39794;55.782;37.452;2023-04-03T10:49:43;25.08;;;10.27;;
53881;SDS011;39794;55.782;37.452;2023-04-03T10:52:27;27.42;;;10.98;;
53881;SDS011;39794;55.782;37.452;2023-04-03T10:55:02;28.77;;;10.40;;
53881;SDS011;39794;55.782;37.452;2023-04-03T10:57:38;24.10;;;10.57;;
53881;SDS011;39794;55.782;37.452;2023-04-03T11:00:14;31.33;;;11.55;;
53881;SDS011;39794;55.782;37.452;2023-04-03T11:02:48;22.65;;;11.32;;
53881;SDS011;39794;55.782;37.452;2023-04-03T11:05:34;19.67;;;10.53;;
53881;SDS011;39794;55.782;37.452;2023-04-03T11:08:08;19.77;;;9.40;;
53881;SDS011;39794;55.782;37.452;2023-04-03T11:10:44;19.20;;;9.48;;
53881;SDS011;39794;55.782;37.452;2023-04-03T11:13:15;17.40;;;8.77;;
53881;SDS011;39794;55.782;37.452;2023-04-03T11:15:46;16.88;;;8.93;;
53881;SDS011;39794;55.782;37.452;2023-04-03T11:18:17;29.33;;;9.80;;
53881;SDS011;39794;55.782;37.452;2023-04-03T11:20:50;21.75;;;8.88;;
53881;SDS011;39794;55.782;37.452;2023-04-03T11:23:26;21.10;;;8.25;;
53881;SDS011;39794;55.782;37.452;2023-04-03T11:26:08;18.23;;;6.57;;
53881;SDS011;39794;55.782;37.452;2023-04-03T11:28:39;12.80;;;7.18;;
53881;SDS011;39794;55.782;37.452;2023-04-03T11:31:15;14.93;;;6.97;;
53881;SDS011;39794;55.782;37.452;2023-04-03T11:36:40;16.73;;;7.35;;
53881;SDS011;39794;55.782;37.452;2023-04-03T11:39:15;20.65;;;7.82;;
53881;SDS011;39794;55.782;37.452;2023-04-03T11:41:47;25.20;;;9.13;;
53881;SDS011;39794;55.782;37.452;2023-04-03T11:44:30;23.08;;;8.45;;
53881;SDS011;39794;55.782;37.452;2023-04-03T11:47:03;23.77;;;7.72;;
53881;SDS011;39794;55.782;37.452;2023-04-03T11:49:52;14.82;;;8.38;;
53881;SDS011;39794;55.782;37.452;2023-04-03T11:55:42;24.15;;;8.80;;
53881;SDS011;39794;55.782;37.452;2023-04-03T11:58:25;19.92;;;7.47;;
53881;SDS011;39794;55.782;37.452;2023-04-03T12:00:57;19.52;;;7.93;;
53881;SDS011;39794;55.782;37.452;2023-04-03T12:12:58;28.55;;;7.85;;
53881;SDS011;39794;55.782;37.452;2023-04-03T12:24:26;20.80;;;9.50;;
53881;SDS011;39794;55.782;37.452;2023-04-03T12:27:04;26.02;;;9.18;;
53881;SDS011;39794;55.782;37.452;2023-04-03T12:29:43;20.52;;;8.57;;
53881;SDS011;39794;55.782;37.452;2023-04-03T12:32:17;30.37;;;9.77;;
53881;SDS011;39794;55.782;37.452;2023-04-03T12:34:55;17.75;;;8.70;;
53881;SDS011;39794;55.782;37.452;2023-04-03T12:37:47;20.90;;;9.20;;
53881;SDS011;39794;55.782;37.452;2023-04-03T12:40:25;22.33;;;9.52;;
53881;SDS011;39794;55.782;37.452;2023-04-03T12:45:46;29.25;;;9.00;;
53881;SDS011;39794;55.782;37.452;2023-04-03T12:48:18;19.63;;;9.85;;
53881;SDS011;39794;55.782;37.452;2023-04-03T12:50:50;25.17;;;9.85;;
53881;SDS011;39794;55.782;37.452;2023-04-03T12:53:21;21.05;;;9.80;;
53881;SDS011;39794;55.782;37.452;2023-04-03T12:55:53;35.70;;;8.95;;
53881;SDS011;39794;55.782;37.452;2023-04-03T12:58:24;14.23;;;7.80;;
53881;SDS011;39794;55.782;37.452;2023-04-03T13:01:03;13.27;;;8.60;;
53881;SDS011;39794;55.782;37.452;2023-04-03T13:03:37;21.08;;;7.63;;
53881;SDS011;39794;55.782;37.452;2023-04-03T13:06:11;15.68;;;7.30;;
53881;SDS011;39794;55.782;37.452;2023-04-03T13:08:48;12.95;;;6.95;;
53881;SDS011;39794;55.782;37.452;2023-04-03T13:11:17;17.17;;;7.22;;
53881;SDS011;39794;55.782;37.452;2023-04-03T13:13:58;11.73;;;7.15;;
53881;SDS011;39794;55.782;37.452;2023-04-03T13:16:28;20.23;;;6.78;;
53881;SDS011;39794;55.782;37.452;2023-04-03T13:19:00;14.40;;;4.60;;
53881;SDS011;39794;55.782;37.452;2023-04-03T13:21:30;10.98;;;4.65;;
53881;SDS011;39794;55.782;37.452;2023-04-03T13:24:00;14.70;;;5.00;;
53881;SDS011;39794;55.782;37.452;2023-04-03T13:26:41;11.27;;;4.93;;
53881;SDS011;39794;55.782;37.452;2023-04-03T13:29:19;12.27;;;5.13;;
53881;SDS011;39794;55.782;37.452;2023-04-03T13:31:58;21.92;;;6.63;;
53881;SDS011;39794;55.782;37.452;2023-04-03T13:34:29;22.15;;;5.68;;
53881;SDS011;39794;55.782;37.452;2023-04-03T13:37:06;15.93;;;5.78;;
53881;SDS011;39794;55.782;37.452;2023-04-03T13:39:39;13.07;;;5.13;;
53881;SDS011;39794;55.782;37.452;2023-04-03T13:42:22;14.30;;;5.78;;
53881;SDS011;39794;55.782;37.452;2023-04-03T13:47:44;14.55;;;5.30;;
53881;SDS011;39794;55.782;37.452;2023-04-03T13:50:15;11.70;;;4.95;;
53881;SDS011;39794;55.782;37.452;2023-04-03T13:52:46;12.40;;;4.65;;
53881;SDS011;39794;55.782;37.452;2023-04-03T13:55:18;14.05;;;4.97;;
53881;SDS011;39794;55.782;37.452;2023-04-03T13:57:53;10.00;;;4.75;;
53881;SDS011;39794;55.782;37.452;2023-04-03T14:00:32;18.25;;;5.90;;
53881;SDS011;39794;55.782;37.452;2023-04-03T14:03:13;22.25;;;5.97;;
53881;SDS011;39794;55.782;37.452;2023-04-03T14:05:44;13.68;;;5.18;;
53881;SDS011;39794;55.782;37.452;2023-04-03T14:08:13;18.40;;;5.35;;
53881;SDS011;39794;55.782;37.452;2023-04-03T14:10:43;13.40;;;5.28;;
53881;SDS011;39794;55.782;37.452;2023-04-03T14:13:12;24.42;;;6.18;;
53881;SDS011;39794;55.782;37.452;2023-04-03T14:15:42;10.30;;;5.60;;
53881;SDS011;39794;55.782;37.452;2023-04-03T14:18:13;12.50;;;6.25;;
53881;SDS011;39794;55.782;37.452;2023-04-03T14:20:43;17.02;;;6.35;;
53881;SDS011;39794;55.782;37.452;2023-04-03T14:23:15;17.00;;;6.40;;
53881;SDS011;39794;55.782;37.452;2023-04-03T14:25:45;20.55;;;6.70;;
53881;SDS011;39794;55.782;37.452;2023-04-03T14:28:15;16.27;;;6.85;;
53881;SDS011;39794;55.782;37.452;2023-04-03T14:30:47;14.02;;;5.85;;
53881;SDS011;39794;55.782;37.452;2023-04-03T14:33:23;15.70;;;6.78;;
53881;SDS011;39794;55.782;37.452;2023-04-03T14:35:54;19.45;;;6.50;;
53881;SDS011;39794;55.782;37.452;2023-04-03T14:38:26;22.42;;;7.45;;
53881;SDS011;39794;55.782;37.452;2023-04-03T14:40:56;12.90;;;6.63;;
53881;SDS011;39794;55.782;37.452;2023-04-03T14:43:45;12.70;;;7.28;;
53881;SDS011;39794;55.782;37.452;2023-04-03T14:46:15;12.93;;;7.18;;
53881;SDS011;39794;55.782;37.452;2023-04-03T14:48:46;16.83;;;6.68;;
53881;SDS011;39794;55.782;37.452;2023-04-03T14:51:15;20.35;;;6.72;;
53881;SDS011;39794;55.782;37.452;2023-04-03T14:53:44;17.60;;;6.40;;
53881;SDS011;39794;55.782;37.452;2023-04-03T14:56:22;10.32;;;6.10;;
53881;SDS011;39794;55.782;37.452;2023-04-03T14:58:52;12.25;;;6.25;;
53881;SDS011;39794;55.782;37.452;2023-04-03T15:01:23;10.70;;;7.28;;
53881;SDS011;39794;55.782;37.452;2023-04-03T15:03:53;15.60;;;8.02;;
53881;SDS011;39794;55.782;37.452;2023-04-03T15:06:22;12.52;;;7.03;;
53881;SDS011;39794;55.782;37.452;2023-04-03T16:53:57;17.58;;;10.88;;
53881;SDS011;39794;55.782;37.452;2023-04-03T16:56:26;19.95;;;9.68;;
53881;SDS011;39794;55.782;37.452;2023-04-03T16:58:55;13.25;;;7.43;;
53881;SDS011;39794;55.782;37.452;2023-04-03T17:01:25;13.30;;;6.43;;
53881;SDS011;39794;55.782;37.452;2023-04-03T17:03:54;14.45;;;8.85;;
53881;SDS011;39794;55.782;37.452;2023-04-03T17:11:08;11.15;;;6.63;;